Time;durP1;ratioP1;P1;durP2;ratioP2;P2;SDS_P1;SDS_P2;PMS_P1;PMS_P2;Temp;Humidity;BMP_temperature;BMP_pressure;BME280_temperature;BME280_humidity;BME280_pressure;Samples;Min_cycle;Max_cycle;Signal;HPM_P1;HPM_P2
2022/11/25 00:01:48;;;;;;;0.80;0.80;;;6.50;99.90;;;;;;5093333;28;20203;-64
2022/11/25 00:04:15;;;;;;;1.00;1.00;;;6.40;99.90;;;;;;5092420;28;20199;-65
2022/11/25 00:06:43;;;;;;;1.00;0.80;;;6.50;99.90;;;;;;5092729;28;20237;-64
2022/11/25 00:09:12;;;;;;;0.70;0.70;;;6.40;99.90;;;;;;5094610;28;20218;-64
2022/11/25 00:11:41;;;;;;;0.83;0.83;;;6.40;99.90;;;;;;5093885;28;20211;-64
2022/11/25 00:14:10;;;;;;;1.00;1.00;;;6.30;99.90;;;;;;5096058;28;20214;-64
2022/11/25 00:16:37;;;;;;;0.90;0.90;;;6.40;99.90;;;;;;5095007;28;20303;-63
2022/11/25 00:19:03;;;;;;;0.90;0.90;;;6.40;99.90;;;;;;5096277;28;20300;-64
2022/11/25 00:21:33;;;;;;;0.93;0.90;;;6.50;99.90;;;;;;5096588;28;20670;-65
2022/11/25 00:24:01;;;;;;;1.00;1.00;;;6.50;99.90;;;;;;5093801;28;20278;-65
2022/11/25 00:26:32;;;;;;;0.90;0.90;;;6.50;99.90;;;;;;5092617;28;20206;-64
2022/11/25 00:29:01;;;;;;;1.00;0.90;;;6.60;99.90;;;;;;5091381;28;20218;-65
2022/11/25 00:31:30;;;;;;;0.87;0.87;;;6.60;99.90;;;;;;5092428;28;20208;-65
2022/11/25 00:33:57;;;;;;;1.00;1.00;;;6.60;99.90;;;;;;5092371;28;20222;-65
2022/11/25 00:36:25;;;;;;;0.90;0.90;;;6.70;99.90;;;;;;5091242;28;20281;-64
2022/11/25 00:38:54;;;;;;;0.97;0.93;;;6.70;99.90;;;;;;5093664;28;20225;-64
2022/11/25 00:46:53;;;;;;;0.93;0.90;;;6.70;99.90;;;;;;5090456;28;20256;-65
2022/11/25 00:49:20;;;;;;;1.13;1.03;;;6.80;99.90;;;;;;5090559;28;20235;-66
2022/11/25 00:51:47;;;;;;;1.20;1.10;;;6.80;99.90;;;;;;5087765;28;20205;-66
2022/11/25 00:54:14;;;;;;;0.90;0.90;;;6.80;99.90;;;;;;5086112;28;20214;-66
2022/11/25 00:56:41;;;;;;;0.90;0.90;;;6.80;99.90;;;;;;5086295;28;20199;-66
2022/11/25 00:59:09;;;;;;;1.07;1.07;;;6.80;99.90;;;;;;5088280;28;20235;-65
2022/11/25 01:01:37;;;;;;;1.00;1.00;;;6.80;99.90;;;;;;5087849;28;20209;-64
2022/11/25 01:04:04;;;;;;;0.90;0.90;;;6.80;99.90;;;;;;5077532;28;20282;-65
2022/11/25 01:06:31;;;;;;;0.77;0.77;;;6.80;99.90;;;;;;5084587;28;20216;-64
2022/11/25 01:08:58;;;;;;;1.07;1.07;;;6.80;99.90;;;;;;5087169;28;20747;-64
2022/11/25 01:11:27;;;;;;;0.80;0.80;;;6.80;99.90;;;;;;5089256;28;20218;-64
2022/11/25 01:13:57;;;;;;;0.90;0.90;;;6.80;99.90;;;;;;5086260;28;20195;-65
2022/11/25 01:16:25;;;;;;;0.90;0.90;;;6.80;99.90;;;;;;5076374;28;20203;-63
2022/11/25 01:18:52;;;;;;;0.83;0.83;;;6.80;99.90;;;;;;5083910;28;20226;-65
2022/11/25 01:21:22;;;;;;;0.87;0.87;;;6.80;99.90;;;;;;5079588;28;20389;-63
2022/11/25 01:23:49;;;;;;;1.53;1.07;;;6.80;99.90;;;;;;5096721;28;20203;-65
2022/11/25 01:26:18;;;;;;;0.80;0.80;;;6.80;99.90;;;;;;5084741;28;20199;-64
2022/11/25 01:28:45;;;;;;;0.97;0.97;;;6.80;99.90;;;;;;5077872;28;20305;-65
2022/11/25 01:31:14;;;;;;;1.20;1.10;;;6.80;99.90;;;;;;5080314;28;20199;-64
2022/11/25 01:33:43;;;;;;;1.10;1.10;;;6.80;99.90;;;;;;5079534;28;20203;-65
2022/11/25 01:36:12;;;;;;;0.87;0.87;;;6.90;99.90;;;;;;5076934;28;20203;-63
2022/11/25 01:38:40;;;;;;;0.93;0.90;;;6.90;99.90;;;;;;5073968;28;20318;-64
2022/11/25 01:41:08;;;;;;;1.33;1.17;;;7.00;99.90;;;;;;5081422;28;20669;-65
2022/11/25 01:43:35;;;;;;;1.00;1.00;;;7.00;99.90;;;;;;5078886;28;20199;-65
2022/11/25 01:46:09;;;;;;;1.03;0.93;;;7.00;99.90;;;;;;5091320;28;20202;-64
2022/11/25 01:48:41;;;;;;;1.03;1.00;;;7.00;99.90;;;;;;5088363;28;20226;-65
2022/11/25 01:51:20;;;;;;;1.93;0.80;;;7.00;99.90;;;;;;5091232;28;20203;-65
2022/11/25 01:53:47;;;;;;;0.70;0.70;;;7.00;99.90;;;;;;5091849;28;20203;-64
2022/11/25 01:56:15;;;;;;;1.23;1.13;;;7.00;99.90;;;;;;5094172;28;20218;-64
2022/11/25 01:58:44;;;;;;;0.90;0.90;;;6.90;99.90;;;;;;5095787;28;20259;-64
2022/11/25 02:01:11;;;;;;;0.80;0.80;;;6.90;99.90;;;;;;5096079;28;20198;-63
2022/11/25 02:03:41;;;;;;;1.00;1.00;;;6.90;99.90;;;;;;5095863;28;20229;-64
2022/11/25 02:06:14;;;;;;;0.97;0.97;;;6.90;99.90;;;;;;5094696;28;20241;-64
2022/11/25 02:08:42;;;;;;;0.80;0.80;;;6.90;99.90;;;;;;5095808;28;20222;-64
2022/11/25 02:11:09;;;;;;;0.90;0.87;;;6.90;99.90;;;;;;5095368;28;20293;-64
2022/11/25 02:13:36;;;;;;;1.20;1.10;;;6.80;99.90;;;;;;5095482;28;20683;-66
2022/11/25 02:16:03;;;;;;;1.20;1.00;;;6.80;99.90;;;;;;5094658;28;20222;-64
2022/11/25 02:18:30;;;;;;;0.70;0.70;;;6.80;99.90;;;;;;5095132;28;20313;-64
2022/11/25 02:20:57;;;;;;;0.93;0.83;;;6.90;99.90;;;;;;5092090;28;20302;-64
2022/11/25 02:23:34;;;;;;;0.83;0.83;;;6.90;99.90;;;;;;5095276;28;20198;-65
2022/11/25 02:26:04;;;;;;;0.90;0.90;;;6.90;99.90;;;;;;5094604;28;20293;-64
2022/11/25 02:28:32;;;;;;;0.90;0.90;;;6.90;99.90;;;;;;5095079;28;20602;-65
2022/11/25 02:30:59;;;;;;;0.73;0.73;;;6.80;99.90;;;;;;5095834;28;20212;-65
2022/11/25 02:33:27;;;;;;;0.90;0.90;;;6.90;99.90;;;;;;5095332;28;20209;-66
2022/11/25 02:35:56;;;;;;;0.87;0.80;;;6.90;99.90;;;;;;5094713;28;20225;-65
2022/11/25 02:38:26;;;;;;;0.93;0.93;;;6.90;99.90;;;;;;5095110;28;20724;-65
2022/11/25 02:40:58;;;;;;;0.83;0.83;;;6.90;99.90;;;;;;5097528;28;20209;-64
2022/11/25 02:43:26;;;;;;;1.63;1.00;;;6.90;99.90;;;;;;5095899;28;20683;-65
2022/11/25 02:45:58;;;;;;;1.33;1.00;;;7.00;99.90;;;;;;5095684;28;20202;-65
2022/11/25 02:48:26;;;;;;;0.90;0.90;;;7.00;99.90;;;;;;5095887;28;20257;-64
2022/11/25 02:50:53;;;;;;;0.60;0.60;;;7.00;99.90;;;;;;5095660;28;20211;-64
2022/11/25 02:53:21;;;;;;;0.80;0.80;;;7.10;99.90;;;;;;5100750;28;20262;-65
2022/11/25 02:55:48;;;;;;;0.70;0.70;;;7.10;99.90;;;;;;5107929;28;20314;-64
2022/11/25 02:58:15;;;;;;;0.77;0.77;;;7.10;99.90;;;;;;5095562;28;20317;-63
2022/11/25 03:00:44;;;;;;;0.90;0.90;;;7.10;99.90;;;;;;5095211;28;20202;-64
2022/11/25 03:03:12;;;;;;;0.83;0.83;;;7.10;99.90;;;;;;5092027;28;20660;-64
2022/11/25 03:05:39;;;;;;;0.80;0.80;;;7.10;99.90;;;;;;5093811;28;20234;-64
2022/11/25 03:08:06;;;;;;;0.90;0.90;;;7.10;99.90;;;;;;5093538;28;20222;-64
2022/11/25 03:10:33;;;;;;;0.80;0.80;;;7.10;99.90;;;;;;5094777;28;20230;-65
2022/11/25 03:13:00;;;;;;;1.10;1.00;;;7.00;99.90;;;;;;5091935;28;20217;-64
2022/11/25 03:15:27;;;;;;;0.70;0.70;;;7.00;99.90;;;;;;5094212;28;20246;-65
2022/11/25 03:17:55;;;;;;;1.10;1.00;;;7.00;99.90;;;;;;5098315;28;20716;-64
2022/11/25 03:20:22;;;;;;;1.27;1.20;;;7.00;99.90;;;;;;5095977;28;20194;-65
2022/11/25 03:22:49;;;;;;;1.00;0.90;;;7.00;99.90;;;;;;5096825;28;20687;-63
2022/11/25 03:25:17;;;;;;;0.90;0.90;;;7.00;99.90;;;;;;5094611;28;20201;-63
2022/11/25 03:27:44;;;;;;;0.90;0.90;;;6.90;99.90;;;;;;5094538;28;20301;-65
2022/11/25 03:30:16;;;;;;;1.37;1.00;;;6.90;99.90;;;;;;5096061;28;20199;-65
2022/11/25 03:32:43;;;;;;;0.83;0.83;;;6.90;99.90;;;;;;5098289;28;20236;-63
2022/11/25 03:35:12;;;;;;;0.90;0.90;;;6.90;99.90;;;;;;5094274;28;20600;-63
2022/11/25 03:37:39;;;;;;;1.00;1.00;;;6.90;99.90;;;;;;5093782;28;20751;-64
2022/11/25 03:40:08;;;;;;;0.83;0.83;;;6.90;99.90;;;;;;5094978;28;20232;-64
2022/11/25 03:42:35;;;;;;;0.80;0.80;;;6.90;99.90;;;;;;5092564;28;20233;-63
2022/11/25 03:45:02;;;;;;;1.10;1.00;;;6.90;99.90;;;;;;5094144;28;20203;-64
2022/11/25 03:47:28;;;;;;;2.70;1.20;;;6.80;99.90;;;;;;5093183;28;20301;-64
2022/11/25 03:49:55;;;;;;;0.70;0.70;;;6.80;99.90;;;;;;5097091;28;20239;-64
2022/11/25 03:52:23;;;;;;;0.90;0.90;;;6.70;99.90;;;;;;5095833;28;20649;-65
2022/11/25 03:54:50;;;;;;;1.40;1.30;;;6.60;99.90;;;;;;5093048;28;20226;-64
2022/11/25 03:57:18;;;;;;;0.90;0.90;;;6.50;99.90;;;;;;5092593;28;20228;-65
2022/11/25 03:59:45;;;;;;;0.83;0.83;;;6.50;99.90;;;;;;5094013;28;20241;-65
2022/11/25 04:02:13;;;;;;;1.07;1.00;;;6.50;99.90;;;;;;5093152;28;20213;-65
2022/11/25 04:04:39;;;;;;;1.20;1.10;;;6.50;99.90;;;;;;5093070;28;20608;-64
2022/11/25 04:07:06;;;;;;;0.73;0.73;;;6.50;99.90;;;;;;5092704;28;20685;-63
2022/11/25 04:09:35;;;;;;;0.70;0.70;;;6.40;99.90;;;;;;5087940;28;20234;-64
2022/11/25 04:14:46;;;;;;;1.00;0.90;;;6.40;99.90;;;;;;5088396;28;20316;-65
2022/11/25 04:17:12;;;;;;;1.17;1.07;;;6.40;99.90;;;;;;5091175;28;20202;-64
2022/11/25 04:19:39;;;;;;;0.70;0.70;;;6.40;99.90;;;;;;5092919;28;20687;-63
2022/11/25 04:22:06;;;;;;;1.00;1.00;;;6.40;99.90;;;;;;5092167;28;20195;-63
2022/11/25 04:24:33;;;;;;;0.77;0.77;;;6.50;99.90;;;;;;5093325;28;20226;-65
2022/11/25 04:27:01;;;;;;;0.60;0.60;;;6.40;99.90;;;;;;5092225;28;20206;-65
2022/11/25 04:29:28;;;;;;;0.53;0.53;;;6.40;99.90;;;;;;5092537;28;20638;-65
2022/11/25 04:31:56;;;;;;;1.00;0.90;;;6.50;99.90;;;;;;5094599;28;20677;-70
2022/11/25 04:34:23;;;;;;;0.70;0.70;;;6.50;99.90;;;;;;5094641;28;20289;-65
2022/11/25 04:36:50;;;;;;;1.60;0.93;;;6.60;99.90;;;;;;5092700;28;20219;-64
2022/11/25 04:39:16;;;;;;;0.77;0.77;;;6.60;99.90;;;;;;5094008;28;20222;-65
2022/11/25 04:41:43;;;;;;;1.40;0.80;;;6.70;99.90;;;;;;5113551;28;20270;-64
2022/11/25 04:44:11;;;;;;;0.70;0.70;;;6.70;99.90;;;;;;5106843;28;20271;-63
2022/11/25 04:46:42;;;;;;;0.83;0.83;;;6.70;99.90;;;;;;5102129;28;20699;-65
2022/11/25 04:49:09;;;;;;;0.67;0.67;;;6.80;99.90;;;;;;5114632;28;20214;-64
2022/11/25 04:51:36;;;;;;;1.03;1.03;;;6.80;99.90;;;;;;5116672;28;20227;-66
2022/11/25 04:54:03;;;;;;;0.70;0.70;;;6.80;99.90;;;;;;5115405;28;20253;-63
2022/11/25 04:56:30;;;;;;;0.67;0.67;;;6.80;99.90;;;;;;5112622;28;20250;-63
2022/11/25 05:01:43;;;;;;;0.80;0.80;;;6.70;99.90;;;;;;5104685;28;20210;-65
2022/11/25 05:04:09;;;;;;;0.80;0.80;;;6.70;99.90;;;;;;5109793;28;20208;-64
2022/11/25 05:06:36;;;;;;;0.77;0.77;;;6.60;99.90;;;;;;5096288;28;20205;-64
2022/11/25 05:09:04;;;;;;;0.73;0.70;;;6.60;99.90;;;;;;5094675;28;20315;-66
2022/11/25 05:11:31;;;;;;;1.23;0.80;;;6.60;99.90;;;;;;5098910;28;20206;-64
2022/11/25 05:13:57;;;;;;;0.80;0.80;;;6.60;99.90;;;;;;5098483;28;20199;-65
2022/11/25 05:16:24;;;;;;;0.70;0.70;;;6.60;99.90;;;;;;5092634;28;20233;-63
2022/11/25 05:18:54;;;;;;;0.80;0.80;;;6.60;99.90;;;;;;5093214;28;20250;-64
2022/11/25 05:21:21;;;;;;;0.80;0.80;;;6.60;99.90;;;;;;5092970;28;20202;-65
2022/11/25 05:23:48;;;;;;;0.80;0.80;;;6.60;99.90;;;;;;5092580;28;20206;-64
2022/11/25 05:26:15;;;;;;;1.37;1.10;;;6.60;99.90;;;;;;5093775;28;20219;-64
2022/11/25 05:28:42;;;;;;;0.87;0.87;;;6.60;99.90;;;;;;5094103;28;20813;-64
2022/11/25 05:31:09;;;;;;;0.90;0.90;;;6.60;99.90;;;;;;5093691;28;20682;-64
2022/11/25 05:33:35;;;;;;;1.00;1.00;;;6.60;99.90;;;;;;5094427;28;20230;-65
2022/11/25 05:36:05;;;;;;;1.23;1.20;;;6.50;99.90;;;;;;5091058;28;20219;-65
2022/11/25 05:38:31;;;;;;;0.90;0.90;;;6.50;99.90;;;;;;5098120;28;20286;-65
2022/11/25 05:41:01;;;;;;;0.80;0.80;;;6.40;99.90;;;;;;5098006;28;20195;-65
2022/11/25 05:43:28;;;;;;;1.13;1.00;;;6.50;99.90;;;;;;5093918;28;20203;-64
2022/11/25 05:45:55;;;;;;;0.90;0.90;;;6.50;99.90;;;;;;5099283;28;20317;-65
2022/11/25 05:48:22;;;;;;;0.80;0.80;;;6.50;99.90;;;;;;5097914;28;20318;-65
2022/11/25 05:50:49;;;;;;;0.90;0.90;;;6.60;99.90;;;;;;5092918;28;20211;-65
2022/11/25 05:53:17;;;;;;;0.90;0.90;;;6.60;99.90;;;;;;5093314;28;20673;-65
2022/11/25 05:55:44;;;;;;;0.83;0.83;;;6.60;99.90;;;;;;5092540;28;20223;-64
2022/11/25 05:58:11;;;;;;;0.70;0.70;;;6.60;99.90;;;;;;5093157;28;20226;-65
2022/11/25 06:00:38;;;;;;;1.00;0.90;;;6.70;99.90;;;;;;5094224;28;20627;-64
2022/11/25 06:03:05;;;;;;;1.23;1.13;;;6.80;99.90;;;;;;5094358;28;20582;-64
2022/11/25 06:05:34;;;;;;;0.77;0.77;;;6.80;99.90;;;;;;5094272;28;20202;-63
2022/11/25 06:08:01;;;;;;;1.20;1.20;;;6.90;99.90;;;;;;5094166;28;20324;-65
2022/11/25 06:10:29;;;;;;;1.07;1.07;;;6.90;99.90;;;;;;5093507;28;20202;-65
2022/11/25 06:12:56;;;;;;;0.97;0.90;;;6.90;99.90;;;;;;5093559;28;20208;-65
2022/11/25 06:15:23;;;;;;;0.93;0.93;;;6.90;99.90;;;;;;5091527;28;20199;-65
2022/11/25 06:17:50;;;;;;;1.00;1.00;;;6.90;99.90;;;;;;5092252;28;20226;-64
2022/11/25 06:20:17;;;;;;;1.17;1.03;;;7.00;99.90;;;;;;5091037;28;20289;-64
2022/11/25 06:22:44;;;;;;;0.90;0.90;;;6.90;99.90;;;;;;5091750;28;20245;-65
2022/11/25 06:25:10;;;;;;;0.90;0.90;;;6.90;99.90;;;;;;5091691;28;20294;-64
2022/11/25 06:27:41;;;;;;;0.90;0.90;;;6.90;99.90;;;;;;5104447;28;20310;-65
2022/11/25 06:30:11;;;;;;;0.90;0.90;;;6.90;99.90;;;;;;5103459;28;20194;-64
2022/11/25 06:32:38;;;;;;;1.07;1.00;;;7.00;99.90;;;;;;5097380;28;20293;-65
2022/11/25 06:35:05;;;;;;;1.17;1.07;;;7.00;99.90;;;;;;5097105;28;20298;-65
2022/11/25 06:37:32;;;;;;;1.00;1.00;;;7.00;99.90;;;;;;5090294;28;20227;-65
2022/11/25 06:39:59;;;;;;;1.00;1.00;;;7.00;99.90;;;;;;5091331;28;20209;-66
2022/11/25 06:42:26;;;;;;;0.87;0.87;;;7.10;99.90;;;;;;5095065;28;20557;-63
2022/11/25 06:44:54;;;;;;;0.97;0.97;;;7.10;99.90;;;;;;5094955;28;20577;-65
2022/11/25 06:47:21;;;;;;;0.90;0.90;;;7.10;99.90;;;;;;5093602;28;20214;-64
2022/11/25 06:49:49;;;;;;;0.80;0.80;;;7.20;99.90;;;;;;5095415;28;20198;-65
2022/11/25 06:52:16;;;;;;;1.10;1.00;;;7.20;99.90;;;;;;5086865;28;20262;-65
2022/11/25 06:54:44;;;;;;;0.93;0.93;;;7.20;99.90;;;;;;5091682;28;20636;-64
2022/11/25 06:57:12;;;;;;;1.73;1.10;;;7.20;99.90;;;;;;5093758;28;20365;-64
2022/11/25 06:59:39;;;;;;;1.27;1.20;;;7.20;99.90;;;;;;5091648;28;20237;-65
2022/11/25 07:02:11;;;;;;;0.93;0.90;;;7.20;99.90;;;;;;5093520;28;20218;-64
2022/11/25 07:04:39;;;;;;;0.77;0.77;;;7.20;99.90;;;;;;5094312;28;20208;-65
2022/11/25 07:07:06;;;;;;;0.93;0.93;;;7.20;99.90;;;;;;5094101;28;20232;-64
2022/11/25 07:09:33;;;;;;;0.80;0.80;;;7.30;99.90;;;;;;5094314;28;20205;-64
2022/11/25 07:12:00;;;;;;;0.90;0.90;;;7.30;99.90;;;;;;5104441;28;20297;-65
2022/11/25 07:14:26;;;;;;;0.80;0.80;;;7.30;99.90;;;;;;5093946;28;20199;-63
2022/11/25 07:16:53;;;;;;;0.83;0.83;;;7.30;99.90;;;;;;5093661;28;20306;-65
2022/11/25 07:19:21;;;;;;;1.17;1.07;;;7.40;99.90;;;;;;5093786;28;20716;-65
2022/11/25 07:21:48;;;;;;;0.90;0.90;;;7.40;99.90;;;;;;5094059;28;20205;-65
2022/11/25 07:24:17;;;;;;;1.00;0.90;;;7.50;99.90;;;;;;5094034;28;20205;-65
2022/11/25 07:26:44;;;;;;;1.03;1.03;;;7.50;99.90;;;;;;5094881;28;20289;-65
2022/11/25 07:29:16;;;;;;;1.03;0.90;;;7.60;99.90;;;;;;5101437;28;20314;-64
2022/11/25 07:31:45;;;;;;;1.13;1.03;;;7.70;99.90;;;;;;5094080;28;20668;-63
2022/11/25 07:34:16;;;;;;;1.17;1.10;;;7.70;99.90;;;;;;5092136;28;20202;-65
2022/11/25 07:36:47;;;;;;;0.90;0.90;;;7.80;99.90;;;;;;5098072;28;20219;-65
2022/11/25 07:39:17;;;;;;;0.93;0.93;;;7.80;99.90;;;;;;5099425;28;20306;-66
2022/11/25 07:41:44;;;;;;;0.93;0.93;;;7.80;99.90;;;;;;5094400;28;20303;-64
2022/11/25 07:44:13;;;;;;;1.00;1.00;;;7.90;99.90;;;;;;5092663;28;20234;-65
2022/11/25 07:46:41;;;;;;;1.30;1.20;;;7.90;99.90;;;;;;5093631;28;20195;-65
2022/11/25 07:49:12;;;;;;;1.87;1.00;;;7.90;99.90;;;;;;5093650;28;20366;-65
2022/11/25 07:51:40;;;;;;;1.00;1.00;;;7.90;99.90;;;;;;5091918;28;20606;-65
2022/11/25 07:54:12;;;;;;;0.97;0.97;;;7.90;99.90;;;;;;5093648;28;20213;-65
2022/11/25 07:56:41;;;;;;;1.00;1.00;;;8.00;99.90;;;;;;5091598;28;20222;-66
2022/11/25 07:59:11;;;;;;;1.37;1.27;;;8.00;99.90;;;;;;5098681;28;20226;-65
2022/11/25 08:01:39;;;;;;;1.07;1.07;;;8.00;99.90;;;;;;5096401;28;20715;-64
2022/11/25 08:04:07;;;;;;;1.20;1.20;;;8.00;99.90;;;;;;5095597;28;20206;-66
2022/11/25 08:06:38;;;;;;;0.93;0.93;;;8.00;99.90;;;;;;5096514;28;20202;-64
2022/11/25 08:09:05;;;;;;;1.03;1.00;;;8.00;99.90;;;;;;5094733;28;20635;-63
2022/11/25 08:11:33;;;;;;;1.20;1.20;;;8.10;99.90;;;;;;5093819;28;20230;-64
2022/11/25 08:14:00;;;;;;;1.63;1.00;;;8.10;99.90;;;;;;5093351;28;20202;-65
2022/11/25 08:16:30;;;;;;;1.00;1.00;;;8.20;99.90;;;;;;5092110;28;20254;-64
2022/11/25 08:18:58;;;;;;;0.90;0.90;;;8.10;99.90;;;;;;5092080;28;20223;-66
2022/11/25 08:21:25;;;;;;;1.10;1.10;;;8.10;99.90;;;;;;5092317;28;20199;-64
2022/11/25 08:23:52;;;;;;;1.30;1.20;;;8.10;99.90;;;;;;5092558;28;20205;-64
2022/11/25 08:26:22;;;;;;;1.40;1.30;;;8.20;99.90;;;;;;5091862;28;20268;-64
2022/11/25 08:28:50;;;;;;;1.10;1.10;;;8.20;99.90;;;;;;5089934;28;20306;-65
2022/11/25 08:31:19;;;;;;;1.10;1.00;;;8.10;99.90;;;;;;5092389;28;20596;-65
2022/11/25 08:33:46;;;;;;;1.17;1.13;;;8.10;99.90;;;;;;5089530;28;20668;-64
2022/11/25 08:36:14;;;;;;;1.07;0.80;;;8.20;99.90;;;;;;5093178;28;20231;-64
2022/11/25 08:38:42;;;;;;;0.93;0.93;;;8.20;99.90;;;;;;5092278;28;20226;-64
2022/11/25 08:41:11;;;;;;;1.10;1.10;;;8.20;99.90;;;;;;5090096;28;20230;-63
2022/11/25 08:43:38;;;;;;;0.93;0.93;;;8.20;99.90;;;;;;5092631;28;20204;-64
2022/11/25 08:46:11;;;;;;;0.77;0.77;;;8.20;99.90;;;;;;5092356;28;20289;-65
2022/11/25 08:48:37;;;;;;;0.90;0.90;;;8.20;99.90;;;;;;5099203;28;20250;-64
2022/11/25 08:51:09;;;;;;;0.90;0.90;;;8.20;99.90;;;;;;5095706;28;20194;-65
2022/11/25 08:53:37;;;;;;;0.90;0.90;;;8.30;99.90;;;;;;5089854;28;20207;-64
2022/11/25 08:56:05;;;;;;;1.30;1.20;;;8.40;99.90;;;;;;5088400;28;20205;-66
2022/11/25 08:58:33;;;;;;;0.93;0.93;;;8.40;99.90;;;;;;5089912;28;20275;-64
2022/11/25 09:01:00;;;;;;;0.80;0.80;;;8.50;99.90;;;;;;5093777;28;20198;-65
2022/11/25 09:03:32;;;;;;;0.93;0.93;;;8.50;99.90;;;;;;5093521;28;20214;-65
2022/11/25 09:05:59;;;;;;;0.90;0.90;;;8.60;99.90;;;;;;5090142;28;20619;-66
2022/11/25 09:08:27;;;;;;;1.37;1.13;;;8.60;99.90;;;;;;5091944;28;20634;-65
2022/11/25 09:10:54;;;;;;;0.90;0.90;;;8.70;99.90;;;;;;5091409;28;20245;-66
2022/11/25 09:13:21;;;;;;;0.87;0.87;;;8.70;99.90;;;;;;5089434;28;20234;-65
2022/11/25 09:15:47;;;;;;;1.07;1.07;;;8.70;99.90;;;;;;5091041;28;20240;-65
2022/11/25 09:18:17;;;;;;;0.90;0.90;;;8.80;99.90;;;;;;5091945;28;20279;-63
2022/11/25 09:20:47;;;;;;;1.30;1.20;;;8.90;99.90;;;;;;5091379;28;20205;-66
2022/11/25 09:23:13;;;;;;;1.10;1.00;;;9.00;99.90;;;;;;5088354;28;20206;-64
2022/11/25 09:25:40;;;;;;;1.10;1.00;;;9.10;99.90;;;;;;5090631;28;20255;-65
2022/11/25 09:28:07;;;;;;;1.00;1.00;;;9.20;99.90;;;;;;5091326;28;20588;-66
2022/11/25 09:30:34;;;;;;;0.77;0.77;;;9.20;99.90;;;;;;5092259;28;20230;-63
2022/11/25 09:33:01;;;;;;;1.37;1.27;;;9.20;99.90;;;;;;5090670;28;20238;-65
2022/11/25 09:35:28;;;;;;;1.50;1.40;;;9.20;99.90;;;;;;5086444;28;20199;-65
2022/11/25 09:37:56;;;;;;;1.60;1.33;;;9.30;99.90;;;;;;5089538;28;20226;-64
2022/11/25 09:40:34;;;;;;;0.90;0.90;;;9.30;99.90;;;;;;5099532;28;20532;-63
2022/11/25 09:49:03;;;;;;;1.43;1.33;;;9.40;99.90;;;;;;5089306;28;20293;-63
2022/11/25 09:51:39;;;;;;;1.40;1.30;;;9.50;99.90;;;;;;5090339;28;20569;-65
2022/11/25 09:54:14;;;;;;;1.30;1.23;;;9.50;99.90;;;;;;5081781;28;20194;-66
2022/11/25 09:56:43;;;;;;;1.20;1.10;;;9.50;99.90;;;;;;5073973;28;20265;-65
2022/11/25 09:59:15;;;;;;;1.47;1.00;;;9.60;99.90;;;;;;5087999;28;20226;-65
2022/11/25 10:01:47;;;;;;;1.03;1.03;;;9.60;99.90;;;;;;5083824;28;20216;-64
2022/11/25 10:04:20;;;;;;;1.10;1.10;;;9.60;99.90;;;;;;5090851;28;20210;-64
2022/11/25 10:06:53;;;;;;;1.30;1.20;;;9.60;99.90;;;;;;5088014;28;20199;-66
2022/11/25 10:31:58;;;;;;;1.13;1.13;;;9.00;99.90;;;;;;5128108;27;20560;-64
2022/11/25 10:34:35;;;;;;;1.10;1.00;;;9.90;99.90;;;;;;5122146;28;20233;-65
2022/11/25 10:37:04;;;;;;;1.53;1.20;;;9.90;99.90;;;;;;5113357;27;20198;-64
2022/11/25 10:39:34;;;;;;;1.00;1.00;;;10.00;99.90;;;;;;5109039;28;20285;-64
2022/11/25 10:42:06;;;;;;;1.30;1.30;;;10.00;99.90;;;;;;5118126;22;20224;-64
2022/11/25 10:44:35;;;;;;;1.43;1.33;;;10.00;99.90;;;;;;5065855;28;20227;-65
2022/11/25 10:47:25;;;;;;;1.50;1.40;;;10.20;99.90;;;;;;5078890;28;20230;-63
2022/11/25 10:50:03;;;;;;;1.20;1.20;;;10.10;99.90;;;;;;5073461;28;20199;-65
2022/11/25 10:52:35;;;;;;;1.53;1.43;;;10.20;99.90;;;;;;5056100;28;20459;-65
2022/11/25 10:55:09;;;;;;;1.20;1.10;;;10.20;99.90;;;;;;5049219;28;20283;-65
2022/11/25 10:57:36;;;;;;;1.07;1.07;;;10.20;99.90;;;;;;5048987;28;20295;-63
2022/11/25 11:00:07;;;;;;;1.80;1.70;;;10.20;99.90;;;;;;5056597;28;20227;-65
2022/11/25 11:02:46;;;;;;;1.60;1.40;;;10.20;99.90;;;;;;5045881;28;20220;-66
2022/11/25 11:05:22;;;;;;;2.13;1.70;;;10.30;99.90;;;;;;5048605;28;20200;-65
2022/11/25 11:08:06;;;;;;;1.60;1.50;;;10.30;99.90;;;;;;5047822;28;20284;-65
2022/11/25 11:10:33;;;;;;;1.47;1.37;;;10.40;99.90;;;;;;5047926;28;20197;-65
2022/11/25 11:13:02;;;;;;;1.60;1.50;;;10.30;99.90;;;;;;5055132;28;20566;-65
2022/11/25 11:15:31;;;;;;;1.83;1.73;;;10.20;99.90;;;;;;5048843;28;20665;-66
2022/11/25 11:18:13;;;;;;;1.70;1.60;;;10.20;99.90;;;;;;5054267;28;20200;-63
2022/11/25 11:20:46;;;;;;;1.60;1.50;;;10.20;99.90;;;;;;5048887;28;20255;-65
2022/11/25 11:23:14;;;;;;;1.70;1.50;;;10.30;99.90;;;;;;5051832;28;20711;-65
2022/11/25 11:25:43;;;;;;;1.60;1.50;;;10.40;99.90;;;;;;5040721;28;20200;-64
2022/11/25 11:28:27;;;;;;;1.70;1.60;;;10.40;99.90;;;;;;5047301;28;20200;-66
2022/11/25 11:30:58;;;;;;;2.10;1.63;;;10.50;99.90;;;;;;5043070;28;20679;-65
2022/11/25 11:33:34;;;;;;;1.97;1.80;;;10.60;99.90;;;;;;5026782;28;20595;-64
2022/11/25 11:36:23;;;;;;;1.83;1.73;;;10.60;99.90;;;;;;5033505;28;20200;-65
2022/11/25 11:38:54;;;;;;;1.70;1.60;;;10.70;99.90;;;;;;5031212;28;20348;-65
2022/11/25 11:41:35;;;;;;;1.80;1.70;;;10.60;99.90;;;;;;5033167;28;20308;-65
2022/11/25 11:44:14;;;;;;;1.87;1.70;;;10.70;99.90;;;;;;5035254;28;20262;-66
2022/11/25 11:46:58;;;;;;;1.30;1.20;;;10.70;99.90;;;;;;5034145;28;20197;-66
2022/11/25 11:50:01;;;;;;;1.50;1.40;;;10.70;99.90;;;;;;5035918;28;20291;-66
2022/11/25 11:52:40;;;;;;;1.20;1.20;;;10.70;99.90;;;;;;5035369;28;20310;-65
2022/11/25 11:55:24;;;;;;;1.60;1.50;;;10.80;99.90;;;;;;5033874;28;20287;-66
2022/11/25 11:57:59;;;;;;;1.80;1.60;;;10.80;99.90;;;;;;5028944;28;20201;-66
2022/11/25 12:03:57;;;;;;;1.20;1.20;;;10.90;99.90;;;;;;5021346;28;20783;-64
2022/11/25 12:06:29;;;;;;;1.70;1.60;;;11.10;99.90;;;;;;5044819;28;20204;-66
2022/11/25 12:09:00;;;;;;;1.60;1.50;;;11.20;99.90;;;;;;5033041;28;20201;-66
2022/11/25 12:11:32;;;;;;;1.40;1.30;;;11.20;99.90;;;;;;5038682;28;20240;-65
2022/11/25 12:14:04;;;;;;;1.20;1.20;;;11.40;99.90;;;;;;5037623;28;20228;-65
2022/11/25 12:16:37;;;;;;;1.27;1.27;;;11.50;99.90;;;;;;5035867;28;20668;-66
2022/11/25 12:19:13;;;;;;;1.43;1.33;;;11.60;99.90;;;;;;5036023;28;20200;-64
2022/11/25 12:21:52;;;;;;;1.43;1.37;;;11.80;99.90;;;;;;5031443;28;20691;-65
2022/11/25 12:24:26;;;;;;;1.50;1.40;;;12.00;99.90;;;;;;5034294;28;20320;-66
2022/11/25 12:26:58;;;;;;;1.47;1.40;;;12.00;99.90;;;;;;5040168;28;20210;-65
2022/11/25 12:29:34;;;;;;;1.30;1.20;;;11.90;99.90;;;;;;5025256;28;20607;-65
2022/11/25 12:32:16;;;;;;;1.10;1.10;;;11.80;99.90;;;;;;5036014;28;20211;-65
2022/11/25 12:34:51;;;;;;;0.90;0.90;;;11.70;99.90;;;;;;5034930;28;20232;-65
2022/11/25 12:37:30;;;;;;;1.00;1.00;;;11.70;99.90;;;;;;5034195;28;20291;-65
2022/11/25 12:40:02;;;;;;;1.10;1.10;;;11.80;99.90;;;;;;5041753;28;20319;-66
2022/11/25 12:42:32;;;;;;;3.13;1.13;;;11.70;99.90;;;;;;5043400;28;20259;-64
2022/11/25 12:45:02;;;;;;;1.03;1.03;;;11.70;99.90;;;;;;5041558;28;20349;-65
2022/11/25 12:47:30;;;;;;;1.40;1.30;;;11.60;99.90;;;;;;5025291;28;20208;-66
2022/11/25 12:49:57;;;;;;;1.03;1.03;;;11.70;99.90;;;;;;5033736;28;20201;-66
2022/11/25 12:52:42;;;;;;;1.47;1.37;;;11.70;99.90;;;;;;5041844;28;20274;-66
2022/11/25 12:55:16;;;;;;;1.30;1.10;;;11.70;99.90;;;;;;5044856;28;20268;-65
2022/11/25 12:58:19;;;;;;;1.10;1.10;;;11.80;99.90;;;;;;5033759;28;20291;-65
2022/11/25 13:01:14;;;;;;;0.90;0.90;;;11.80;99.90;;;;;;5028537;28;20236;-65
2022/11/25 13:04:14;;;;;;;1.10;1.10;;;11.80;99.90;;;;;;5034524;28;20703;-65
2022/11/25 13:06:59;;;;;;;0.97;0.97;;;11.70;99.90;;;;;;5021501;28;20208;-64
2022/11/25 13:09:46;;;;;;;0.93;0.93;;;11.80;99.90;;;;;;5028946;28;20205;-66
2022/11/25 13:12:27;;;;;;;1.10;1.10;;;11.80;99.90;;;;;;5031254;28;20630;-65
2022/11/25 13:15:28;;;;;;;1.13;1.13;;;11.80;99.90;;;;;;5032131;28;20205;-64
2022/11/25 13:17:58;;;;;;;1.10;1.10;;;11.80;99.90;;;;;;5026632;28;20204;-64
2022/11/25 13:20:43;;;;;;;0.90;0.90;;;11.80;99.90;;;;;;5031721;28;20227;-66
2022/11/25 13:23:23;;;;;;;1.00;1.00;;;11.80;99.90;;;;;;5031302;28;20227;-66
2022/11/25 13:25:53;;;;;;;1.13;1.13;;;11.80;99.90;;;;;;5033552;28;20670;-67
2022/11/25 13:28:31;;;;;;;0.80;0.80;;;11.90;99.90;;;;;;5032082;28;20220;-65
2022/11/25 13:31:17;;;;;;;1.40;1.20;;;11.90;99.90;;;;;;5030989;28;20201;-65
2022/11/25 13:34:24;;;;;;;1.10;1.03;;;12.00;99.90;;;;;;5026446;28;20316;-65
2022/11/25 13:36:52;;;;;;;1.03;1.00;;;12.10;99.90;;;;;;5030247;28;20296;-65
2022/11/25 13:39:30;;;;;;;1.20;1.20;;;12.20;99.90;;;;;;5031978;28;20215;-64
2022/11/25 13:42:04;;;;;;;1.03;1.00;;;12.20;99.90;;;;;;5030532;28;20672;-66
2022/11/25 13:44:34;;;;;;;1.13;1.03;;;12.10;99.90;;;;;;5031346;28;20701;-63
2022/11/25 13:47:23;;;;;;;1.10;1.10;;;12.20;99.90;;;;;;5030845;28;20197;-66
2022/11/25 13:49:55;;;;;;;0.90;0.90;;;12.20;99.90;;;;;;5026636;28;20209;-65
2022/11/25 13:52:36;;;;;;;1.10;1.10;;;12.20;99.90;;;;;;5030785;28;20220;-65
2022/11/25 13:55:20;;;;;;;1.10;1.10;;;12.20;99.90;;;;;;5028481;28;20204;-65